sensor_id;sensor_type;location;lat;lon;timestamp;temperature;humidity
18950;DHT22;9608;49.288;8.130;2023-02-28T00:01:13;0.30;99.90
18950;DHT22;9608;49.288;8.130;2023-02-28T00:03:41;0.30;99.90
18950;DHT22;9608;49.288;8.130;2023-02-28T00:06:09;0.20;99.90
18950;DHT22;9608;49.288;8.130;2023-02-28T00:08:36;0.20;99.90
18950;DHT22;9608;49.288;8.130;2023-02-28T00:11:05;0.20;99.90
18950;DHT22;9608;49.288;8.130;2023-02-28T00:13:35;0.10;99.90
18950;DHT22;9608;49.288;8.130;2023-02-28T00:16:04;0.00;99.90
18950;DHT22;9608;49.288;8.130;2023-02-28T00:18:32;-0.10;99.90
18950;DHT22;9608;49.288;8.130;2023-02-28T00:20:59;-0.10;99.90
18950;DHT22;9608;49.288;8.130;2023-02-28T00:23:28;-0.10;99.90
18950;DHT22;9608;49.288;8.130;2023-02-28T00:25:55;-0.20;99.90
18950;DHT22;9608;49.288;8.130;2023-02-28T00:28:22;-0.20;99.90
18950;DHT22;9608;49.288;8.130;2023-02-28T00:30:48;-0.20;99.90
18950;DHT22;9608;49.288;8.130;2023-02-28T00:33:16;-0.20;99.90
18950;DHT22;9608;49.288;8.130;2023-02-28T00:35:43;-0.30;99.90
18950;DHT22;9608;49.288;8.130;2023-02-28T00:38:11;-0.30;99.90
18950;DHT22;9608;49.288;8.130;2023-02-28T00:40:39;-0.40;99.90
18950;DHT22;9608;49.288;8.130;2023-02-28T00:43:06;-0.40;99.90
18950;DHT22;9608;49.288;8.130;2023-02-28T00:45:33;-0.30;99.90
18950;DHT22;9608;49.288;8.130;2023-02-28T00:47:59;-0.30;99.90
18950;DHT22;9608;49.288;8.130;2023-02-28T00:50:26;-0.20;99.90
18950;DHT22;9608;49.288;8.130;2023-02-28T00:52:53;-0.10;99.90
18950;DHT22;9608;49.288;8.130;2023-02-28T00:55:20;-0.10;99.90
18950;DHT22;9608;49.288;8.130;2023-02-28T00:57:48;-0.20;99.90
18950;DHT22;9608;49.288;8.130;2023-02-28T01:00:15;-0.20;99.90
18950;DHT22;9608;49.288;8.130;2023-02-28T01:02:42;-0.20;99.90
18950;DHT22;9608;49.288;8.130;2023-02-28T01:05:10;-0.20;99.90
18950;DHT22;9608;49.288;8.130;2023-02-28T01:07:37;-0.20;99.90
18950;DHT22;9608;49.288;8.130;2023-02-28T01:10:04;-0.20;99.90
18950;DHT22;9608;49.288;8.130;2023-02-28T01:12:31;-0.20;99.90
18950;DHT22;9608;49.288;8.130;2023-02-28T01:14:59;-0.20;99.90
18950;DHT22;9608;49.288;8.130;2023-02-28T01:17:26;-0.20;99.90
18950;DHT22;9608;49.288;8.130;2023-02-28T01:19:53;-0.20;99.90
18950;DHT22;9608;49.288;8.130;2023-02-28T01:22:20;-0.30;99.90
18950;DHT22;9608;49.288;8.130;2023-02-28T01:24:47;-0.30;99.90
18950;DHT22;9608;49.288;8.130;2023-02-28T01:27:14;-0.30;99.90
18950;DHT22;9608;49.288;8.130;2023-02-28T01:29:41;-0.30;99.90
18950;DHT22;9608;49.288;8.130;2023-02-28T01:32:09;-0.20;99.90
18950;DHT22;9608;49.288;8.130;2023-02-28T01:34:36;-0.20;99.90
18950;DHT22;9608;49.288;8.130;2023-02-28T01:37:03;-0.10;99.90
18950;DHT22;9608;49.288;8.130;2023-02-28T01:39:30;-0.10;99.90
18950;DHT22;9608;49.288;8.130;2023-02-28T01:41:56;-0.10;99.90
18950;DHT22;9608;49.288;8.130;2023-02-28T01:44:55;-0.10;99.90
18950;DHT22;9608;49.288;8.130;2023-02-28T01:47:27;-0.10;99.90
18950;DHT22;9608;49.288;8.130;2023-02-28T01:49:55;-0.10;99.90
18950;DHT22;9608;49.288;8.130;2023-02-28T01:52:22;-0.10;99.90
18950;DHT22;9608;49.288;8.130;2023-02-28T01:54:52;-0.10;99.90
18950;DHT22;9608;49.288;8.130;2023-02-28T01:57:21;-0.10;99.90
18950;DHT22;9608;49.288;8.130;2023-02-28T01:59:53;-0.20;99.90
18950;DHT22;9608;49.288;8.130;2023-02-28T02:02:21;-0.30;99.90
18950;DHT22;9608;49.288;8.130;2023-02-28T02:04:54;-0.30;99.90
18950;DHT22;9608;49.288;8.130;2023-02-28T02:07:21;-0.40;99.90
18950;DHT22;9608;49.288;8.130;2023-02-28T02:09:48;-0.50;99.90
18950;DHT22;9608;49.288;8.130;2023-02-28T02:12:25;-0.60;99.90
18950;DHT22;9608;49.288;8.130;2023-02-28T02:15:01;-0.60;99.90
18950;DHT22;9608;49.288;8.130;2023-02-28T02:17:34;-0.60;99.90
18950;DHT22;9608;49.288;8.130;2023-02-28T02:20:38;-0.70;99.90
18950;DHT22;9608;49.288;8.130;2023-02-28T02:29:21;-0.90;99.90
18950;DHT22;9608;49.288;8.130;2023-02-28T02:32:28;-0.90;99.90
18950;DHT22;9608;49.288;8.130;2023-02-28T02:35:08;-1.00;99.90
18950;DHT22;9608;49.288;8.130;2023-02-28T02:37:41;-1.00;99.90
18950;DHT22;9608;49.288;8.130;2023-02-28T02:40:14;-1.00;99.90
18950;DHT22;9608;49.288;8.130;2023-02-28T02:42:48;-1.10;99.90
18950;DHT22;9608;49.288;8.130;2023-02-28T02:45:21;-1.10;99.90
18950;DHT22;9608;49.288;8.130;2023-02-28T02:47:49;-1.10;99.90
18950;DHT22;9608;49.288;8.130;2023-02-28T02:50:24;-1.10;99.90
18950;DHT22;9608;49.288;8.130;2023-02-28T02:52:56;-1.10;99.90
18950;DHT22;9608;49.288;8.130;2023-02-28T02:55:23;-1.10;99.90
18950;DHT22;9608;49.288;8.130;2023-02-28T02:57:54;-1.10;99.90
18950;DHT22;9608;49.288;8.130;2023-02-28T03:00:26;-1.10;99.90
18950;DHT22;9608;49.288;8.130;2023-02-28T03:02:55;-1.10;99.90
18950;DHT22;9608;49.288;8.130;2023-02-28T03:05:26;-1.20;99.90
18950;DHT22;9608;49.288;8.130;2023-02-28T03:07:54;-1.10;99.90
18950;DHT22;9608;49.288;8.130;2023-02-28T03:10:31;-1.10;99.90
18950;DHT22;9608;49.288;8.130;2023-02-28T03:13:08;-1.20;99.90
18950;DHT22;9608;49.288;8.130;2023-02-28T03:15:46;-1.10;99.90
18950;DHT22;9608;49.288;8.130;2023-02-28T03:18:21;-1.20;99.90
18950;DHT22;9608;49.288;8.130;2023-02-28T03:20:59;-1.20;99.90
18950;DHT22;9608;49.288;8.130;2023-02-28T03:23:34;-1.20;99.90
18950;DHT22;9608;49.288;8.130;2023-02-28T03:26:05;-1.20;99.90
18950;DHT22;9608;49.288;8.130;2023-02-28T03:28:39;-1.20;99.90
18950;DHT22;9608;49.288;8.130;2023-02-28T03:31:16;-1.30;99.90
18950;DHT22;9608;49.288;8.130;2023-02-28T03:33:46;-1.30;99.90
18950;DHT22;9608;49.288;8.130;2023-02-28T03:36:24;-1.40;99.90
18950;DHT22;9608;49.288;8.130;2023-02-28T03:38:54;-1.50;99.90
18950;DHT22;9608;49.288;8.130;2023-02-28T03:41:25;-1.40;99.90
18950;DHT22;9608;49.288;8.130;2023-02-28T03:43:55;-1.40;99.90
18950;DHT22;9608;49.288;8.130;2023-02-28T03:46:25;-1.50;99.90
18950;DHT22;9608;49.288;8.130;2023-02-28T03:48:55;-1.50;99.90
18950;DHT22;9608;49.288;8.130;2023-02-28T03:51:26;-1.50;99.90
18950;DHT22;9608;49.288;8.130;2023-02-28T03:53:56;-1.50;99.90
18950;DHT22;9608;49.288;8.130;2023-02-28T03:56:29;-1.50;99.90
18950;DHT22;9608;49.288;8.130;2023-02-28T03:59:00;-1.50;99.90
18950;DHT22;9608;49.288;8.130;2023-02-28T04:01:33;-1.50;99.90
18950;DHT22;9608;49.288;8.130;2023-02-28T04:04:02;-1.40;99.90
18950;DHT22;9608;49.288;8.130;2023-02-28T04:06:31;-1.40;99.90
18950;DHT22;9608;49.288;8.130;2023-02-28T04:08:58;-1.40;99.90
18950;DHT22;9608;49.288;8.130;2023-02-28T04:11:32;-1.40;99.90
18950;DHT22;9608;49.288;8.130;2023-02-28T04:14:00;-1.40;99.90
18950;DHT22;9608;49.288;8.130;2023-02-28T04:16:27;-1.40;99.90
18950;DHT22;9608;49.288;8.130;2023-02-28T04:18:54;-1.40;99.90
18950;DHT22;9608;49.288;8.130;2023-02-28T04:21:27;-1.30;99.90
18950;DHT22;9608;49.288;8.130;2023-02-28T04:23:57;-1.30;99.90
18950;DHT22;9608;49.288;8.130;2023-02-28T04:26:27;-1.30;99.90
18950;DHT22;9608;49.288;8.130;2023-02-28T04:28:55;-1.30;99.90
18950;DHT22;9608;49.288;8.130;2023-02-28T04:31:21;-1.30;99.90
18950;DHT22;9608;49.288;8.130;2023-02-28T04:33:48;-1.30;99.90
18950;DHT22;9608;49.288;8.130;2023-02-28T04:36:15;-1.30;99.90
18950;DHT22;9608;49.288;8.130;2023-02-28T04:38:44;-1.20;99.90
18950;DHT22;9608;49.288;8.130;2023-02-28T04:41:12;-1.20;99.90
18950;DHT22;9608;49.288;8.130;2023-02-28T04:43:39;-1.30;99.90
18950;DHT22;9608;49.288;8.130;2023-02-28T04:46:06;-1.30;99.90
18950;DHT22;9608;49.288;8.130;2023-02-28T04:48:34;-1.30;99.90
18950;DHT22;9608;49.288;8.130;2023-02-28T04:51:02;-1.20;99.90
18950;DHT22;9608;49.288;8.130;2023-02-28T04:53:30;-1.30;99.90
18950;DHT22;9608;49.288;8.130;2023-02-28T04:55:57;-1.20;99.90
18950;DHT22;9608;49.288;8.130;2023-02-28T04:58:25;-1.20;99.90
18950;DHT22;9608;49.288;8.130;2023-02-28T05:00:53;-1.20;99.90
18950;DHT22;9608;49.288;8.130;2023-02-28T05:03:21;-1.20;99.90
18950;DHT22;9608;49.288;8.130;2023-02-28T05:05:48;-1.30;99.90
18950;DHT22;9608;49.288;8.130;2023-02-28T05:08:14;-1.20;99.90
18950;DHT22;9608;49.288;8.130;2023-02-28T05:10:41;-1.20;99.90
18950;DHT22;9608;49.288;8.130;2023-02-28T05:13:10;-1.10;99.90
18950;DHT22;9608;49.288;8.130;2023-02-28T05:15:39;-1.00;99.90
18950;DHT22;9608;49.288;8.130;2023-02-28T05:18:07;-0.90;99.90
18950;DHT22;9608;49.288;8.130;2023-02-28T05:20:34;-0.80;99.90
18950;DHT22;9608;49.288;8.130;2023-02-28T05:23:01;-0.80;99.90
18950;DHT22;9608;49.288;8.130;2023-02-28T05:25:28;-0.70;99.90
18950;DHT22;9608;49.288;8.130;2023-02-28T05:27:58;-0.90;99.90
18950;DHT22;9608;49.288;8.130;2023-02-28T05:30:25;-0.90;99.90
18950;DHT22;9608;49.288;8.130;2023-02-28T05:32:53;-0.90;99.90
18950;DHT22;9608;49.288;8.130;2023-02-28T05:35:20;-0.90;99.90
18950;DHT22;9608;49.288;8.130;2023-02-28T05:37:46;-0.90;99.90
18950;DHT22;9608;49.288;8.130;2023-02-28T05:40:13;-0.90;99.90
18950;DHT22;9608;49.288;8.130;2023-02-28T05:42:41;-0.80;99.90
18950;DHT22;9608;49.288;8.130;2023-02-28T05:45:09;-0.80;99.90
18950;DHT22;9608;49.288;8.130;2023-02-28T05:47:36;-0.70;99.90
18950;DHT22;9608;49.288;8.130;2023-02-28T05:50:06;-0.70;99.90
18950;DHT22;9608;49.288;8.130;2023-02-28T05:52:32;-0.60;99.90
18950;DHT22;9608;49.288;8.130;2023-02-28T05:54:59;-0.60;99.90
18950;DHT22;9608;49.288;8.130;2023-02-28T05:57:26;-0.50;99.90
18950;DHT22;9608;49.288;8.130;2023-02-28T05:59:52;-0.70;99.90
18950;DHT22;9608;49.288;8.130;2023-02-28T06:02:19;-1.10;99.90
18950;DHT22;9608;49.288;8.130;2023-02-28T06:04:46;-1.20;99.90
18950;DHT22;9608;49.288;8.130;2023-02-28T06:07:14;-1.20;99.90
18950;DHT22;9608;49.288;8.130;2023-02-28T06:09:43;-1.30;99.90
18950;DHT22;9608;49.288;8.130;2023-02-28T06:12:09;-1.30;99.90
18950;DHT22;9608;49.288;8.130;2023-02-28T06:14:36;-1.40;99.90
18950;DHT22;9608;49.288;8.130;2023-02-28T06:17:03;-1.50;99.90
18950;DHT22;9608;49.288;8.130;2023-02-28T06:19:30;-1.30;99.90
18950;DHT22;9608;49.288;8.130;2023-02-28T06:21:57;-1.30;99.90
18950;DHT22;9608;49.288;8.130;2023-02-28T06:24:27;-1.30;99.90
18950;DHT22;9608;49.288;8.130;2023-02-28T06:26:54;-1.30;99.90
18950;DHT22;9608;49.288;8.130;2023-02-28T06:29:21;-1.30;99.90
18950;DHT22;9608;49.288;8.130;2023-02-28T06:31:48;-1.30;99.90
18950;DHT22;9608;49.288;8.130;2023-02-28T06:34:15;-1.30;99.90
18950;DHT22;9608;49.288;8.130;2023-02-28T06:36:42;-1.40;99.90
18950;DHT22;9608;49.288;8.130;2023-02-28T06:39:09;-1.40;99.90
18950;DHT22;9608;49.288;8.130;2023-02-28T06:41:37;-1.40;99.90
18950;DHT22;9608;49.288;8.130;2023-02-28T06:44:08;-1.40;99.90
18950;DHT22;9608;49.288;8.130;2023-02-28T06:46:39;-1.30;99.90
18950;DHT22;9608;49.288;8.130;2023-02-28T06:49:05;-1.30;99.90
18950;DHT22;9608;49.288;8.130;2023-02-28T06:51:35;-1.30;99.90
18950;DHT22;9608;49.288;8.130;2023-02-28T06:54:03;-1.30;99.90
18950;DHT22;9608;49.288;8.130;2023-02-28T06:56:30;-1.20;99.90
18950;DHT22;9608;49.288;8.130;2023-02-28T06:58:58;-1.20;99.90
18950;DHT22;9608;49.288;8.130;2023-02-28T07:01:25;-1.20;99.90
18950;DHT22;9608;49.288;8.130;2023-02-28T07:03:53;-1.20;99.90
18950;DHT22;9608;49.288;8.130;2023-02-28T07:06:21;-1.20;99.90
18950;DHT22;9608;49.288;8.130;2023-02-28T07:08:49;-1.10;99.90
18950;DHT22;9608;49.288;8.130;2023-02-28T07:11:18;-1.00;99.90
18950;DHT22;9608;49.288;8.130;2023-02-28T07:13:46;-1.00;99.90
18950;DHT22;9608;49.288;8.130;2023-02-28T07:16:15;-1.00;99.90
18950;DHT22;9608;49.288;8.130;2023-02-28T07:18:42;-0.80;99.90
18950;DHT22;9608;49.288;8.130;2023-02-28T07:21:10;-0.90;99.90
18950;DHT22;9608;49.288;8.130;2023-02-28T07:23:38;-0.90;99.90
18950;DHT22;9608;49.288;8.130;2023-02-28T07:26:06;-0.90;99.90
18950;DHT22;9608;49.288;8.130;2023-02-28T07:28:33;-0.90;99.90
18950;DHT22;9608;49.288;8.130;2023-02-28T07:31:03;-0.80;99.90
18950;DHT22;9608;49.288;8.130;2023-02-28T07:33:33;-0.80;99.90
18950;DHT22;9608;49.288;8.130;2023-02-28T07:36:01;-0.90;99.90
18950;DHT22;9608;49.288;8.130;2023-02-28T07:38:28;-0.70;99.90
18950;DHT22;9608;49.288;8.130;2023-02-28T07:40:55;-0.60;99.90
18950;DHT22;9608;49.288;8.130;2023-02-28T07:43:22;-0.60;99.90
18950;DHT22;9608;49.288;8.130;2023-02-28T07:45:49;-0.70;99.90
18950;DHT22;9608;49.288;8.130;2023-02-28T07:48:17;-0.70;99.90
18950;DHT22;9608;49.288;8.130;2023-02-28T07:50:54;-0.60;99.90
18950;DHT22;9608;49.288;8.130;2023-02-28T07:53:21;-0.70;99.90
18950;DHT22;9608;49.288;8.130;2023-02-28T07:55:49;-0.60;99.90
18950;DHT22;9608;49.288;8.130;2023-02-28T07:58:16;-0.50;99.90
18950;DHT22;9608;49.288;8.130;2023-02-28T08:00:44;-0.40;99.90
18950;DHT22;9608;49.288;8.130;2023-02-28T08:03:12;-0.30;99.90
18950;DHT22;9608;49.288;8.130;2023-02-28T08:05:39;-0.30;99.90
18950;DHT22;9608;49.288;8.130;2023-02-28T08:08:09;-0.20;99.90
18950;DHT22;9608;49.288;8.130;2023-02-28T08:10:37;-0.10;99.90
18950;DHT22;9608;49.288;8.130;2023-02-28T08:13:04;-0.10;99.90
18950;DHT22;9608;49.288;8.130;2023-02-28T08:15:31;-0.10;99.90
18950;DHT22;9608;49.288;8.130;2023-02-28T08:17:59;0.10;99.90
18950;DHT22;9608;49.288;8.130;2023-02-28T08:20:27;0.20;99.90
18950;DHT22;9608;49.288;8.130;2023-02-28T08:22:54;0.30;99.90
18950;DHT22;9608;49.288;8.130;2023-02-28T08:25:23;0.30;99.90
18950;DHT22;9608;49.288;8.130;2023-02-28T08:27:51;0.50;99.90
18950;DHT22;9608;49.288;8.130;2023-02-28T08:30:22;0.40;99.90
18950;DHT22;9608;49.288;8.130;2023-02-28T08:32:49;0.40;99.90
18950;DHT22;9608;49.288;8.130;2023-02-28T08:35:16;0.70;99.90
18950;DHT22;9608;49.288;8.130;2023-02-28T08:37:43;0.80;99.90
18950;DHT22;9608;49.288;8.130;2023-02-28T08:44:14;0.80;99.90
18950;DHT22;9608;49.288;8.130;2023-02-28T08:46:41;0.90;99.90
18950;DHT22;9608;49.288;8.130;2023-02-28T08:49:10;1.10;99.90
18950;DHT22;9608;49.288;8.130;2023-02-28T08:54:13;1.00;99.90
18950;DHT22;9608;49.288;8.130;2023-02-28T08:56:45;1.10;99.90
18950;DHT22;9608;49.288;8.130;2023-02-28T08:59:16;0.90;99.90
18950;DHT22;9608;49.288;8.130;2023-02-28T09:01:44;1.00;99.90
18950;DHT22;9608;49.288;8.130;2023-02-28T09:04:12;0.80;99.90
18950;DHT22;9608;49.288;8.130;2023-02-28T09:06:39;0.80;99.90
18950;DHT22;9608;49.288;8.130;2023-02-28T09:09:06;0.90;99.90
18950;DHT22;9608;49.288;8.130;2023-02-28T09:11:33;0.90;99.90
18950;DHT22;9608;49.288;8.130;2023-02-28T09:14:01;1.10;99.90
18950;DHT22;9608;49.288;8.130;2023-02-28T09:16:32;1.30;99.90
18950;DHT22;9608;49.288;8.130;2023-02-28T09:19:01;1.30;99.90
18950;DHT22;9608;49.288;8.130;2023-02-28T09:21:33;1.50;99.90
18950;DHT22;9608;49.288;8.130;2023-02-28T09:24:06;1.60;99.90
18950;DHT22;9608;49.288;8.130;2023-02-28T09:26:38;1.80;99.90
18950;DHT22;9608;49.288;8.130;2023-02-28T09:29:06;1.90;99.90
18950;DHT22;9608;49.288;8.130;2023-02-28T09:31:37;2.10;99.90
18950;DHT22;9608;49.288;8.130;2023-02-28T09:34:11;2.00;99.90
18950;DHT22;9608;49.288;8.130;2023-02-28T09:36:42;2.00;99.90
18950;DHT22;9608;49.288;8.130;2023-02-28T09:39:10;2.10;99.90
18950;DHT22;9608;49.288;8.130;2023-02-28T09:42:01;2.10;99.90
18950;DHT22;9608;49.288;8.130;2023-02-28T09:48:41;2.20;99.90
18950;DHT22;9608;49.288;8.130;2023-02-28T09:51:43;2.20;99.90
18950;DHT22;9608;49.288;8.130;2023-02-28T09:54:37;2.10;99.90
18950;DHT22;9608;49.288;8.130;2023-02-28T09:57:27;2.40;99.90
18950;DHT22;9608;49.288;8.130;2023-02-28T10:00:35;2.40;99.90
18950;DHT22;9608;49.288;8.130;2023-02-28T10:03:30;2.30;99.90
18950;DHT22;9608;49.288;8.130;2023-02-28T10:09:41;2.50;99.90
18950;DHT22;9608;49.288;8.130;2023-02-28T10:12:19;2.60;99.90
18950;DHT22;9608;49.288;8.130;2023-02-28T10:15:05;2.70;99.90
18950;DHT22;9608;49.288;8.130;2023-02-28T10:18:26;2.80;99.90
18950;DHT22;9608;49.288;8.130;2023-02-28T10:21:03;3.10;99.90
18950;DHT22;9608;49.288;8.130;2023-02-28T10:23:34;3.10;99.90
18950;DHT22;9608;49.288;8.130;2023-02-28T10:26:44;3.20;99.90
18950;DHT22;9608;49.288;8.130;2023-02-28T10:29:15;3.10;99.90
18950;DHT22;9608;49.288;8.130;2023-02-28T10:31:43;3.20;99.90
18950;DHT22;9608;49.288;8.130;2023-02-28T10:34:12;3.10;99.90
18950;DHT22;9608;49.288;8.130;2023-02-28T10:36:40;3.20;99.90
18950;DHT22;9608;49.288;8.130;2023-02-28T10:39:36;3.10;99.90
18950;DHT22;9608;49.288;8.130;2023-02-28T10:42:20;3.00;99.90
18950;DHT22;9608;49.288;8.130;2023-02-28T10:45:10;2.90;99.90
18950;DHT22;9608;49.288;8.130;2023-02-28T10:47:49;2.80;99.90
18950;DHT22;9608;49.288;8.130;2023-02-28T10:50:35;2.70;99.90
18950;DHT22;9608;49.288;8.130;2023-02-28T10:53:54;2.60;99.90
18950;DHT22;9608;49.288;8.130;2023-02-28T10:56:36;3.00;99.90
18950;DHT22;9608;49.288;8.130;2023-02-28T10:59:28;3.40;99.90
18950;DHT22;9608;49.288;8.130;2023-02-28T11:02:47;3.40;99.90
18950;DHT22;9608;49.288;8.130;2023-02-28T11:06:04;3.40;99.90
18950;DHT22;9608;49.288;8.130;2023-02-28T11:08:34;3.10;99.90
18950;DHT22;9608;49.288;8.130;2023-02-28T11:11:11;3.40;99.90
18950;DHT22;9608;49.288;8.130;2023-02-28T11:13:40;4.00;99.90
18950;DHT22;9608;49.288;8.130;2023-02-28T11:16:17;3.90;99.90
18950;DHT22;9608;49.288;8.130;2023-02-28T11:18:53;4.00;99.90
18950;DHT22;9608;49.288;8.130;2023-02-28T11:21:28;3.90;99.90
18950;DHT22;9608;49.288;8.130;2023-02-28T11:24:02;4.10;99.90
18950;DHT22;9608;49.288;8.130;2023-02-28T11:26:39;3.90;99.90
18950;DHT22;9608;49.288;8.130;2023-02-28T11:29:20;3.80;99.90
18950;DHT22;9608;49.288;8.130;2023-02-28T11:32:12;4.10;99.90
18950;DHT22;9608;49.288;8.130;2023-02-28T11:34:43;3.80;99.90
18950;DHT22;9608;49.288;8.130;2023-02-28T11:37:14;3.60;99.90
18950;DHT22;9608;49.288;8.130;2023-02-28T11:39:44;3.40;99.90
18950;DHT22;9608;49.288;8.130;2023-02-28T11:42:28;3.30;99.90
18950;DHT22;9608;49.288;8.130;2023-02-28T11:45:11;3.00;99.90
18950;DHT22;9608;49.288;8.130;2023-02-28T11:47:48;3.10;99.90
18950;DHT22;9608;49.288;8.130;2023-02-28T11:50:42;3.40;99.90
18950;DHT22;9608;49.288;8.130;2023-02-28T11:53:19;3.50;99.90
18950;DHT22;9608;49.288;8.130;2023-02-28T11:55:53;3.50;99.90
18950;DHT22;9608;49.288;8.130;2023-02-28T11:58:29;3.40;99.90
18950;DHT22;9608;49.288;8.130;2023-02-28T12:01:13;3.60;99.90
18950;DHT22;9608;49.288;8.130;2023-02-28T12:03:58;3.80;99.90
18950;DHT22;9608;49.288;8.130;2023-02-28T12:06:33;3.90;99.90
18950;DHT22;9608;49.288;8.130;2023-02-28T12:09:17;4.10;99.90
18950;DHT22;9608;49.288;8.130;2023-02-28T12:11:52;3.70;99.90
18950;DHT22;9608;49.288;8.130;2023-02-28T12:14:50;3.60;99.90
18950;DHT22;9608;49.288;8.130;2023-02-28T12:17:36;3.60;99.90
18950;DHT22;9608;49.288;8.130;2023-02-28T12:20:14;3.70;99.90
18950;DHT22;9608;49.288;8.130;2023-02-28T12:22:52;3.90;99.90
18950;DHT22;9608;49.288;8.130;2023-02-28T12:26:07;4.10;99.90
18950;DHT22;9608;49.288;8.130;2023-02-28T12:28:40;4.50;99.90
18950;DHT22;9608;49.288;8.130;2023-02-28T12:31:14;4.30;99.90
18950;DHT22;9608;49.288;8.130;2023-02-28T12:33:47;4.30;99.90
18950;DHT22;9608;49.288;8.130;2023-02-28T12:36:18;4.40;99.90
18950;DHT22;9608;49.288;8.130;2023-02-28T12:38:50;4.50;99.90
18950;DHT22;9608;49.288;8.130;2023-02-28T12:41:22;4.40;99.90
18950;DHT22;9608;49.288;8.130;2023-02-28T12:43:57;4.50;99.90
18950;DHT22;9608;49.288;8.130;2023-02-28T12:46:30;4.70;99.90
18950;DHT22;9608;49.288;8.130;2023-02-28T12:49:02;4.70;99.90
18950;DHT22;9608;49.288;8.130;2023-02-28T12:51:32;4.50;99.90
18950;DHT22;9608;49.288;8.130;2023-02-28T12:54:14;4.40;99.90
18950;DHT22;9608;49.288;8.130;2023-02-28T12:56:47;4.60;99.90
18950;DHT22;9608;49.288;8.130;2023-02-28T12:59:23;4.60;99.90
18950;DHT22;9608;49.288;8.130;2023-02-28T13:02:15;4.40;99.90
18950;DHT22;9608;49.288;8.130;2023-02-28T13:04:55;4.40;99.90
18950;DHT22;9608;49.288;8.130;2023-02-28T13:10:41;4.40;99.90
18950;DHT22;9608;49.288;8.130;2023-02-28T13:13:15;4.70;99.90
18950;DHT22;9608;49.288;8.130;2023-02-28T13:16:01;4.80;99.90
18950;DHT22;9608;49.288;8.130;2023-02-28T13:18:35;4.70;99.90
18950;DHT22;9608;49.288;8.130;2023-02-28T13:21:06;4.60;99.90
18950;DHT22;9608;49.288;8.130;2023-02-28T13:23:41;4.50;99.90
18950;DHT22;9608;49.288;8.130;2023-02-28T13:29:30;4.80;99.90
18950;DHT22;9608;49.288;8.130;2023-02-28T13:38:34;4.70;99.90
18950;DHT22;9608;49.288;8.130;2023-02-28T13:44:11;4.70;99.90
18950;DHT22;9608;49.288;8.130;2023-02-28T13:49:38;4.80;99.90
18950;DHT22;9608;49.288;8.130;2023-02-28T13:52:11;4.70;99.90
18950;DHT22;9608;49.288;8.130;2023-02-28T13:54:50;4.80;99.90
18950;DHT22;9608;49.288;8.130;2023-02-28T13:57:32;4.70;99.90
18950;DHT22;9608;49.288;8.130;2023-02-28T14:00:16;4.60;99.90
18950;DHT22;9608;49.288;8.130;2023-02-28T14:03:22;4.40;99.90
18950;DHT22;9608;49.288;8.130;2023-02-28T14:06:08;4.50;99.90
18950;DHT22;9608;49.288;8.130;2023-02-28T14:08:37;4.60;99.90
18950;DHT22;9608;49.288;8.130;2023-02-28T14:11:25;4.60;99.90
18950;DHT22;9608;49.288;8.130;2023-02-28T14:13:52;4.80;99.90
18950;DHT22;9608;49.288;8.130;2023-02-28T14:16:23;5.00;99.90
18950;DHT22;9608;49.288;8.130;2023-02-28T14:18:56;5.10;99.90
18950;DHT22;9608;49.288;8.130;2023-02-28T14:21:26;5.10;99.90
18950;DHT22;9608;49.288;8.130;2023-02-28T14:24:24;5.00;99.90
18950;DHT22;9608;49.288;8.130;2023-02-28T14:27:11;5.00;99.90
18950;DHT22;9608;49.288;8.130;2023-02-28T14:30:00;5.10;99.90
18950;DHT22;9608;49.288;8.130;2023-02-28T14:32:33;5.00;99.90
18950;DHT22;9608;49.288;8.130;2023-02-28T14:35:14;4.90;99.90
18950;DHT22;9608;49.288;8.130;2023-02-28T14:37:44;4.80;99.90
18950;DHT22;9608;49.288;8.130;2023-02-28T14:40:14;4.60;99.90
18950;DHT22;9608;49.288;8.130;2023-02-28T14:42:47;4.50;99.90
18950;DHT22;9608;49.288;8.130;2023-02-28T14:45:18;4.60;99.90
18950;DHT22;9608;49.288;8.130;2023-02-28T14:47:47;4.60;99.90
18950;DHT22;9608;49.288;8.130;2023-02-28T14:50:20;4.70;99.90
18950;DHT22;9608;49.288;8.130;2023-02-28T14:52:47;4.70;99.90
18950;DHT22;9608;49.288;8.130;2023-02-28T14:55:17;4.70;99.90
18950;DHT22;9608;49.288;8.130;2023-02-28T14:57:52;4.70;99.90
18950;DHT22;9608;49.288;8.130;2023-02-28T15:00:23;4.70;99.90
18950;DHT22;9608;49.288;8.130;2023-02-28T15:02:52;4.70;99.90
18950;DHT22;9608;49.288;8.130;2023-02-28T15:05:24;4.60;99.90
18950;DHT22;9608;49.288;8.130;2023-02-28T15:08:02;4.60;99.90
18950;DHT22;9608;49.288;8.130;2023-02-28T15:10:30;4.70;99.90
18950;DHT22;9608;49.288;8.130;2023-02-28T15:12:58;4.80;99.90
18950;DHT22;9608;49.288;8.130;2023-02-28T15:15:28;4.60;99.90
18950;DHT22;9608;49.288;8.130;2023-02-28T15:18:03;4.60;99.90
18950;DHT22;9608;49.288;8.130;2023-02-28T15:20:32;4.60;99.90
18950;DHT22;9608;49.288;8.130;2023-02-28T15:22:59;4.60;99.90
18950;DHT22;9608;49.288;8.130;2023-02-28T15:25:27;4.50;99.90
18950;DHT22;9608;49.288;8.130;2023-02-28T15:27:55;4.50;99.90
18950;DHT22;9608;49.288;8.130;2023-02-28T15:30:26;4.40;99.90
18950;DHT22;9608;49.288;8.130;2023-02-28T15:33:07;4.30;99.90
18950;DHT22;9608;49.288;8.130;2023-02-28T15:35:43;4.30;99.90
18950;DHT22;9608;49.288;8.130;2023-02-28T15:38:17;4.40;99.90
18950;DHT22;9608;49.288;8.130;2023-02-28T15:40:45;4.30;99.90
18950;DHT22;9608;49.288;8.130;2023-02-28T15:43:23;4.30;99.90
18950;DHT22;9608;49.288;8.130;2023-02-28T15:45:52;4.20;99.90
18950;DHT22;9608;49.288;8.130;2023-02-28T15:48:24;4.10;99.90
18950;DHT22;9608;49.288;8.130;2023-02-28T15:50:54;4.10;99.90
18950;DHT22;9608;49.288;8.130;2023-02-28T15:53:24;4.10;99.90
18950;DHT22;9608;49.288;8.130;2023-02-28T15:56:00;4.00;99.90
18950;DHT22;9608;49.288;8.130;2023-02-28T15:58:28;3.90;99.90
18950;DHT22;9608;49.288;8.130;2023-02-28T16:01:16;3.90;99.90
18950;DHT22;9608;49.288;8.130;2023-02-28T16:03:48;3.90;99.90
18950;DHT22;9608;49.288;8.130;2023-02-28T16:06:26;3.80;99.90
18950;DHT22;9608;49.288;8.130;2023-02-28T16:08:56;3.80;99.90
18950;DHT22;9608;49.288;8.130;2023-02-28T16:11:23;3.80;99.90
18950;DHT22;9608;49.288;8.130;2023-02-28T16:13:50;3.70;99.90
18950;DHT22;9608;49.288;8.130;2023-02-28T16:16:18;3.70;99.90
18950;DHT22;9608;49.288;8.130;2023-02-28T16:18:49;3.70;99.90
18950;DHT22;9608;49.288;8.130;2023-02-28T16:21:16;3.60;99.90
18950;DHT22;9608;49.288;8.130;2023-02-28T16:23:43;3.60;99.90
18950;DHT22;9608;49.288;8.130;2023-02-28T16:26:18;3.60;99.90
18950;DHT22;9608;49.288;8.130;2023-02-28T16:28:45;3.50;99.90
18950;DHT22;9608;49.288;8.130;2023-02-28T16:31:12;3.50;99.90
18950;DHT22;9608;49.288;8.130;2023-02-28T16:33:42;3.40;99.90
18950;DHT22;9608;49.288;8.130;2023-02-28T16:36:13;3.40;99.90
18950;DHT22;9608;49.288;8.130;2023-02-28T16:38:41;3.40;99.90
18950;DHT22;9608;49.288;8.130;2023-02-28T16:41:12;3.30;99.90
18950;DHT22;9608;49.288;8.130;2023-02-28T16:43:42;3.20;99.90
18950;DHT22;9608;49.288;8.130;2023-02-28T16:46:11;3.20;99.90
18950;DHT22;9608;49.288;8.130;2023-02-28T16:48:38;3.10;99.90
18950;DHT22;9608;49.288;8.130;2023-02-28T16:51:05;3.00;99.90
18950;DHT22;9608;49.288;8.130;2023-02-28T16:53:34;2.90;99.90
18950;DHT22;9608;49.288;8.130;2023-02-28T16:56:01;2.80;99.90
18950;DHT22;9608;49.288;8.130;2023-02-28T16:58:28;2.80;99.90
18950;DHT22;9608;49.288;8.130;2023-02-28T17:00:55;2.90;99.90
18950;DHT22;9608;49.288;8.130;2023-02-28T17:03:23;3.10;99.90
18950;DHT22;9608;49.288;8.130;2023-02-28T17:05:50;3.20;99.90
18950;DHT22;9608;49.288;8.130;2023-02-28T17:08:17;3.20;99.90